Time;durP1;ratioP1;P1;durP2;ratioP2;P2;SDS_P1;SDS_P2;PMS_P1;PMS_P2;Temp;Humidity;BMP_temperature;BMP_pressure;BME280_temperature;BME280_humidity;BME280_pressure;Samples;Min_cycle;Max_cycle;Signal;HPM_P1;HPM_P2
2021/07/09 00:02:32;;;;;;;5.37;4.87;;;15.20;99.90;;;;;;5138122;27;20412;-42
2021/07/09 00:04:59;;;;;;;5.47;4.33;;;15.20;99.90;;;;;;5139666;27;20413;-41
2021/07/09 00:07:24;;;;;;;11.53;5.57;;;15.10;99.90;;;;;;5139042;27;20870;-42
2021/07/09 00:09:51;;;;;;;5.67;4.90;;;15.20;99.90;;;;;;5139197;27;20748;-43
2021/07/09 00:12:17;;;;;;;10.80;4.87;;;15.10;99.90;;;;;;5121283;27;20190;-43
2021/07/09 00:14:43;;;;;;;5.00;4.60;;;15.20;99.90;;;;;;5139477;27;20500;-43
2021/07/09 00:17:09;;;;;;;5.13;4.63;;;15.20;99.90;;;;;;5138630;27;20432;-43
2021/07/09 00:19:35;;;;;;;5.37;4.57;;;15.20;99.90;;;;;;5139692;27;20443;-43
2021/07/09 00:22:02;;;;;;;6.20;5.20;;;15.20;99.90;;;;;;5139374;27;20248;-42
2021/07/09 00:24:28;;;;;;;6.20;4.87;;;15.20;99.90;;;;;;5138688;27;20417;-43
2021/07/09 00:26:53;;;;;;;5.73;4.80;;;15.20;99.90;;;;;;5138701;27;20451;-43
2021/07/09 00:29:19;;;;;;;4.87;4.47;;;15.20;99.90;;;;;;5139103;27;20306;-43
2021/07/09 00:31:45;;;;;;;5.43;4.53;;;15.20;99.90;;;;;;5139028;27;20167;-43
2021/07/09 00:34:11;;;;;;;5.33;4.87;;;15.20;99.90;;;;;;5138574;27;20409;-43
2021/07/09 00:36:37;;;;;;;5.70;5.03;;;15.20;99.90;;;;;;5138980;27;20171;-44
2021/07/09 00:39:04;;;;;;;8.00;5.33;;;15.30;99.90;;;;;;5138508;27;20530;-43
2021/07/09 00:41:30;;;;;;;5.13;4.60;;;15.30;99.90;;;;;;5120243;27;20435;-44
2021/07/09 00:43:56;;;;;;;7.10;4.97;;;15.40;99.90;;;;;;5120131;27;20438;-43
2021/07/09 00:46:37;;;;;;;4.60;4.20;;;15.40;99.90;;;;;;5138826;27;20420;-43
2021/07/09 00:49:07;;;;;;;5.33;4.83;;;15.40;99.90;;;;;;5137390;27;20279;-44
2021/07/09 00:51:33;;;;;;;5.43;5.00;;;15.40;99.90;;;;;;5135797;27;20787;-44
2021/07/09 00:53:59;;;;;;;5.40;4.90;;;15.50;99.90;;;;;;5138298;27;20676;-43
2021/07/09 00:56:25;;;;;;;5.47;4.70;;;15.60;99.90;;;;;;5137805;27;20758;-43
2021/07/09 00:58:52;;;;;;;4.90;4.33;;;15.60;99.90;;;;;;5138204;27;20175;-43
2021/07/09 01:01:18;;;;;;;6.33;4.50;;;15.70;99.90;;;;;;5120086;27;20539;-44
2021/07/09 01:03:45;;;;;;;5.60;4.53;;;15.70;99.90;;;;;;5138751;27;20449;-44
2021/07/09 01:06:14;;;;;;;4.90;4.50;;;15.80;99.90;;;;;;5139152;27;20691;-43
2021/07/09 01:09:35;;;;;;;5.30;4.47;;;15.80;99.90;;;;;;5139143;27;20540;-43
2021/07/09 01:12:01;;;;;;;8.33;4.53;;;15.70;99.90;;;;;;5139086;27;20416;-43
2021/07/09 01:14:27;;;;;;;4.97;4.47;;;15.70;99.90;;;;;;5140033;27;20409;-43
2021/07/09 01:16:53;;;;;;;4.93;4.47;;;15.70;99.90;;;;;;5121786;27;20404;-43
2021/07/09 01:19:20;;;;;;;4.83;4.43;;;15.70;99.90;;;;;;5139950;27;20183;-43
2021/07/09 01:21:47;;;;;;;4.33;3.90;;;15.60;99.90;;;;;;5140069;27;20177;-43
2021/07/09 01:24:13;;;;;;;5.40;4.50;;;15.60;99.90;;;;;;5104690;27;20424;-43
2021/07/09 01:26:40;;;;;;;7.80;4.50;;;15.60;99.90;;;;;;5139718;27;20413;-43
2021/07/09 01:29:07;;;;;;;4.40;4.00;;;15.50;99.90;;;;;;5138882;27;20786;-43
2021/07/09 01:31:34;;;;;;;4.47;3.90;;;15.50;99.90;;;;;;5139586;27;20425;-43
2021/07/09 01:34:00;;;;;;;4.53;4.03;;;15.50;99.90;;;;;;5120370;27;20420;-43
2021/07/09 01:36:25;;;;;;;4.90;4.27;;;15.50;99.90;;;;;;5139449;27;20424;-43
2021/07/09 01:38:51;;;;;;;4.50;4.10;;;15.40;99.90;;;;;;5139580;27;20195;-43
2021/07/09 01:41:18;;;;;;;4.60;3.60;;;15.40;99.90;;;;;;5139414;27;20210;-43
2021/07/09 01:43:44;;;;;;;6.63;4.33;;;15.40;99.90;;;;;;5139857;27;20400;-43
2021/07/09 01:46:12;;;;;;;4.70;4.00;;;15.40;99.90;;;;;;5139414;27;20420;-42
2021/07/09 01:48:52;;;;;;;9.30;4.40;;;15.30;99.90;;;;;;5121244;27;20818;-43
2021/07/09 01:51:17;;;;;;;3.70;3.40;;;15.30;99.90;;;;;;5139701;27;20436;-43
2021/07/09 01:53:43;;;;;;;4.43;3.80;;;15.30;99.90;;;;;;5121467;27;20409;-42
2021/07/09 01:56:09;;;;;;;4.20;3.83;;;15.20;99.90;;;;;;5139612;27;20280;-43
2021/07/09 01:58:35;;;;;;;5.30;4.07;;;15.20;99.90;;;;;;5139638;27;20409;-43
2021/07/09 02:01:00;;;;;;;4.07;3.63;;;15.20;99.90;;;;;;5139122;27;20218;-42
2021/07/09 02:03:26;;;;;;;4.50;3.93;;;15.10;99.90;;;;;;5139006;27;20517;-43
2021/07/09 02:05:51;;;;;;;3.80;3.50;;;15.10;99.90;;;;;;5139539;27;20179;-42
2021/07/09 02:08:17;;;;;;;4.33;3.50;;;15.00;99.90;;;;;;5139179;27;20198;-42
2021/07/09 02:10:44;;;;;;;4.40;4.00;;;15.00;99.90;;;;;;5139386;27;20163;-43
2021/07/09 02:13:10;;;;;;;4.50;4.10;;;15.00;99.90;;;;;;5138937;27;20191;-43
2021/07/09 02:15:43;;;;;;;4.83;4.00;;;14.90;99.90;;;;;;5139044;27;20412;-43
2021/07/09 02:18:09;;;;;;;4.67;4.27;;;14.90;99.90;;;;;;5139522;27;20412;-42
2021/07/09 02:20:36;;;;;;;6.17;4.53;;;14.80;99.90;;;;;;5138912;27;20408;-42
2021/07/09 02:23:04;;;;;;;4.90;4.40;;;14.90;99.90;;;;;;5139089;27;20416;-41
2021/07/09 02:25:29;;;;;;;6.40;4.93;;;14.80;99.90;;;;;;5139075;27;20438;-43
2021/07/09 02:27:56;;;;;;;5.83;5.10;;;14.80;99.90;;;;;;5139003;28;20432;-43
2021/07/09 02:30:24;;;;;;;5.93;5.13;;;14.80;99.90;;;;;;5139335;28;20269;-43
2021/07/09 02:32:51;;;;;;;4.80;4.30;;;14.80;99.90;;;;;;5138580;28;20417;-43
2021/07/09 02:35:19;;;;;;;7.03;4.67;;;14.70;99.90;;;;;;5138196;28;20417;-42
2021/07/09 02:37:47;;;;;;;5.40;4.90;;;14.70;99.90;;;;;;5137983;28;20528;-42
2021/07/09 02:40:15;;;;;;;6.07;5.47;;;14.70;99.90;;;;;;5141755;27;20401;-43
2021/07/09 02:42:42;;;;;;;6.07;4.80;;;14.70;99.90;;;;;;5143438;27;20424;-42
2021/07/09 02:45:12;;;;;;;5.10;4.60;;;14.70;99.90;;;;;;5143468;27;20826;-43
2021/07/09 02:47:39;;;;;;;5.23;4.83;;;14.70;99.90;;;;;;5143391;27;20421;-43
2021/07/09 02:50:10;;;;;;;6.10;4.70;;;14.70;99.90;;;;;;5143557;27;20467;-42
2021/07/09 02:52:35;;;;;;;7.93;5.57;;;14.70;99.90;;;;;;5143149;27;20849;-42
2021/07/09 02:55:05;;;;;;;8.13;5.20;;;14.60;99.90;;;;;;5142969;27;20432;-43
2021/07/09 02:57:31;;;;;;;5.90;5.30;;;14.60;99.90;;;;;;5142983;27;20178;-45
2021/07/09 02:59:57;;;;;;;4.77;4.37;;;14.60;99.90;;;;;;5143320;27;20404;-43
2021/07/09 03:02:23;;;;;;;5.40;4.90;;;14.60;99.90;;;;;;5142841;27;20544;-43
2021/07/09 03:04:49;;;;;;;5.37;4.87;;;14.60;99.90;;;;;;5143161;27;20175;-42
2021/07/09 03:07:14;;;;;;;6.43;4.67;;;14.60;99.90;;;;;;5124891;27;20589;-43
2021/07/09 03:09:40;;;;;;;5.70;4.80;;;14.60;99.90;;;;;;5143399;27;20592;-42
2021/07/09 03:12:06;;;;;;;5.67;5.10;;;14.60;99.90;;;;;;5142896;27;20203;-43
2021/07/09 03:14:32;;;;;;;5.90;5.40;;;14.60;99.90;;;;;;5124942;27;20167;-43
2021/07/09 03:16:57;;;;;;;5.83;4.97;;;14.70;99.90;;;;;;5124245;27;20439;-43
2021/07/09 03:19:23;;;;;;;6.60;4.93;;;14.70;99.90;;;;;;5142803;27;20171;-42
2021/07/09 03:21:49;;;;;;;5.00;4.60;;;14.70;99.90;;;;;;5142507;27;20179;-43
2021/07/09 03:24:14;;;;;;;5.20;4.53;;;14.70;99.90;;;;;;5142320;27;20167;-42
2021/07/09 03:26:40;;;;;;;5.20;4.43;;;14.70;99.90;;;;;;5142087;27;20228;-43
2021/07/09 03:29:06;;;;;;;7.00;5.17;;;14.70;99.90;;;;;;5141537;27;20202;-43
2021/07/09 03:31:32;;;;;;;5.63;5.03;;;14.70;99.90;;;;;;5123634;27;20208;-43
2021/07/09 03:33:58;;;;;;;5.53;4.90;;;14.80;99.90;;;;;;5141792;27;20171;-43
2021/07/09 03:36:25;;;;;;;5.83;5.10;;;14.70;99.90;;;;;;5122637;27;20417;-43
2021/07/09 03:38:51;;;;;;;5.70;5.20;;;14.80;99.90;;;;;;5141224;27;20453;-43
2021/07/09 03:41:17;;;;;;;7.60;5.30;;;14.80;99.90;;;;;;5139983;27;20451;-43
2021/07/09 03:43:44;;;;;;;7.07;5.93;;;14.80;99.90;;;;;;5138726;27;20424;-43
2021/07/09 03:46:09;;;;;;;6.77;5.93;;;14.70;99.90;;;;;;5139284;27;20245;-43
2021/07/09 03:48:35;;;;;;;6.10;5.47;;;14.70;99.90;;;;;;5138277;27;20460;-43
2021/07/09 03:51:01;;;;;;;7.23;5.53;;;14.70;99.90;;;;;;5137646;27;20187;-42
2021/07/09 03:53:26;;;;;;;7.23;6.53;;;14.70;99.90;;;;;;5139159;27;20175;-43
2021/07/09 03:55:52;;;;;;;6.50;5.90;;;14.70;99.90;;;;;;5138500;27;20223;-43
2021/07/09 03:58:18;;;;;;;7.10;6.50;;;14.70;99.90;;;;;;5139657;27;20202;-43
2021/07/09 04:00:43;;;;;;;6.73;6.13;;;14.60;99.90;;;;;;5121461;27;20167;-43
2021/07/09 04:03:09;;;;;;;8.23;6.53;;;14.70;99.90;;;;;;5139422;27;20347;-43
2021/07/09 04:05:35;;;;;;;6.87;6.13;;;14.70;99.90;;;;;;5139685;27;20255;-43
2021/07/09 04:08:01;;;;;;;10.17;5.90;;;14.70;99.90;;;;;;5138903;27;20717;-43
2021/07/09 04:10:27;;;;;;;7.83;5.90;;;14.70;99.90;;;;;;5140828;27;20460;-43
2021/07/09 04:12:52;;;;;;;6.63;5.93;;;14.70;99.90;;;;;;5140607;27;20179;-43
2021/07/09 04:15:20;;;;;;;7.87;6.60;;;14.70;99.90;;;;;;5141083;27;20454;-43
2021/07/09 04:17:45;;;;;;;7.20;6.53;;;14.80;99.90;;;;;;5141204;27;20179;-43
2021/07/09 04:20:12;;;;;;;6.70;6.10;;;14.80;99.90;;;;;;5141446;27;20908;-43
2021/07/09 04:22:38;;;;;;;7.27;6.63;;;14.80;99.90;;;;;;5140473;27;20442;-43
2021/07/09 04:25:08;;;;;;;6.10;5.50;;;14.80;99.90;;;;;;5140338;27;20473;-42
2021/07/09 04:27:37;;;;;;;6.30;5.67;;;14.80;99.90;;;;;;5140993;27;20450;-43
2021/07/09 04:30:04;;;;;;;7.27;5.40;;;14.90;99.90;;;;;;5140962;27;20895;-43
2021/07/09 04:32:29;;;;;;;5.60;5.10;;;14.80;99.90;;;;;;5140867;27;20424;-42
2021/07/09 04:34:55;;;;;;;5.90;5.03;;;14.80;99.90;;;;;;5140529;27;20898;-42
2021/07/09 04:37:20;;;;;;;5.77;5.27;;;14.80;99.90;;;;;;5140729;27;20552;-42
2021/07/09 04:39:46;;;;;;;6.63;5.33;;;14.70;99.90;;;;;;5138419;27;20175;-42
2021/07/09 04:42:13;;;;;;;6.50;4.97;;;14.70;99.90;;;;;;5137641;27;20622;-42
2021/07/09 04:44:39;;;;;;;5.60;5.03;;;14.70;99.90;;;;;;5138052;27;20421;-43
2021/07/09 04:47:05;;;;;;;5.93;5.33;;;14.70;99.90;;;;;;5139075;27;20428;-42
2021/07/09 04:49:31;;;;;;;5.50;5.00;;;14.70;99.90;;;;;;5138217;27;20522;-43
2021/07/09 04:51:56;;;;;;;5.43;4.93;;;14.70;99.90;;;;;;5130523;27;20507;-43
2021/07/09 04:54:22;;;;;;;5.20;4.73;;;14.70;99.90;;;;;;5117712;28;20254;-43
2021/07/09 04:56:48;;;;;;;6.13;4.97;;;14.70;99.90;;;;;;5117631;28;20232;-43
2021/07/09 04:59:14;;;;;;;5.40;4.90;;;14.70;99.90;;;;;;5116294;28;20470;-43
2021/07/09 05:01:39;;;;;;;6.77;4.80;;;14.70;99.90;;;;;;5118169;28;20578;-43
2021/07/09 05:04:07;;;;;;;7.73;4.83;;;14.80;99.90;;;;;;5118641;28;20182;-43
2021/07/09 05:06:33;;;;;;;9.40;5.07;;;14.70;99.90;;;;;;5118571;28;20187;-43
2021/07/09 05:08:59;;;;;;;5.13;4.70;;;14.80;99.90;;;;;;5118183;28;20722;-43
2021/07/09 05:11:25;;;;;;;5.07;4.67;;;14.80;99.90;;;;;;5115107;28;20518;-43
2021/07/09 05:13:51;;;;;;;6.87;5.10;;;14.90;99.90;;;;;;5116321;28;20468;-43
2021/07/09 05:16:17;;;;;;;6.60;5.07;;;14.90;99.90;;;;;;5115761;28;20271;-43
2021/07/09 05:18:43;;;;;;;5.17;4.40;;;15.00;99.90;;;;;;5097387;28;20265;-43
2021/07/09 05:21:09;;;;;;;6.27;5.77;;;15.10;99.90;;;;;;5115580;28;20524;-43
2021/07/09 05:23:34;;;;;;;5.60;5.10;;;15.10;99.90;;;;;;5080631;28;20176;-43
2021/07/09 05:26:00;;;;;;;5.13;4.70;;;15.10;99.90;;;;;;5098236;28;20225;-45
2021/07/09 05:28:26;;;;;;;5.50;5.00;;;15.10;99.90;;;;;;5116061;28;20253;-45
2021/07/09 05:30:52;;;;;;;5.53;5.00;;;15.00;99.90;;;;;;5115392;28;20776;-43
2021/07/09 05:33:18;;;;;;;5.50;4.33;;;14.90;99.90;;;;;;5097462;28;20413;-45
2021/07/09 05:35:44;;;;;;;5.70;5.17;;;14.80;99.90;;;;;;5116878;28;20237;-45
2021/07/09 05:38:10;;;;;;;5.60;5.10;;;14.80;99.90;;;;;;5116142;28;20402;-45
2021/07/09 05:40:36;;;;;;;5.70;5.20;;;14.80;99.90;;;;;;5115614;28;20439;-45
2021/07/09 05:43:03;;;;;;;5.57;5.07;;;14.80;99.90;;;;;;5116177;28;20398;-44
2021/07/09 05:45:29;;;;;;;5.27;4.83;;;14.70;99.90;;;;;;5115538;28;20834;-45
2021/07/09 05:47:55;;;;;;;6.17;4.60;;;14.70;99.90;;;;;;5115829;28;20489;-45
2021/07/09 05:50:21;;;;;;;5.20;4.80;;;14.70;99.90;;;;;;5114934;28;20459;-45
2021/07/09 05:52:48;;;;;;;4.90;4.50;;;14.60;99.90;;;;;;5114218;28;20425;-43
2021/07/09 05:55:14;;;;;;;5.33;4.83;;;14.60;99.90;;;;;;5109615;28;20331;-42
2021/07/09 05:57:40;;;;;;;5.80;5.30;;;14.70;99.90;;;;;;5094283;28;20438;-42
2021/07/09 06:00:06;;;;;;;5.57;5.07;;;14.70;99.90;;;;;;5094592;28;20415;-43
2021/07/09 06:02:32;;;;;;;5.50;5.00;;;14.80;99.90;;;;;;5095927;28;20434;-42
2021/07/09 06:04:58;;;;;;;5.13;4.73;;;14.90;99.90;;;;;;5096629;28;20424;-42
2021/07/09 06:07:23;;;;;;;5.40;4.80;;;15.00;99.90;;;;;;5109022;28;20573;-41
2021/07/09 06:09:49;;;;;;;7.13;5.60;;;15.00;99.90;;;;;;5116325;28;20261;-42
2021/07/09 06:12:15;;;;;;;5.73;5.23;;;15.20;99.90;;;;;;5117185;28;20271;-43
2021/07/09 06:14:41;;;;;;;5.03;4.63;;;15.30;99.90;;;;;;5117381;28;20423;-42
2021/07/09 06:17:06;;;;;;;5.63;4.70;;;15.30;99.90;;;;;;5100035;28;20176;-42
2021/07/09 06:19:32;;;;;;;6.17;5.43;;;15.30;99.90;;;;;;5117265;28;20421;-40
2021/07/09 06:21:58;;;;;;;5.97;5.37;;;15.40;99.90;;;;;;5117531;28;20258;-40
2021/07/09 06:24:24;;;;;;;6.17;5.67;;;15.40;99.90;;;;;;5100100;28;20180;-42
2021/07/09 06:26:49;;;;;;;6.37;5.07;;;15.40;99.90;;;;;;5117412;28;20826;-43
2021/07/09 06:29:15;;;;;;;5.43;5.03;;;15.50;99.90;;;;;;5116959;28;20456;-42
2021/07/09 06:31:41;;;;;;;6.80;5.70;;;15.60;99.90;;;;;;5098807;28;20179;-41
2021/07/09 06:34:07;;;;;;;6.70;6.00;;;15.50;99.90;;;;;;5117016;28;20175;-42
2021/07/09 06:36:32;;;;;;;7.23;6.53;;;15.60;99.90;;;;;;5117454;28;20190;-41
2021/07/09 06:38:58;;;;;;;6.97;6.33;;;15.60;99.90;;;;;;5117663;28;20244;-42
2021/07/09 06:41:24;;;;;;;8.23;6.90;;;15.40;99.90;;;;;;5117199;28;20171;-42
2021/07/09 06:43:50;;;;;;;9.60;6.53;;;15.50;99.90;;;;;;5116780;28;20446;-42
2021/07/09 06:46:15;;;;;;;7.60;6.90;;;15.60;99.90;;;;;;5115885;28;20208;-43
2021/07/09 06:48:41;;;;;;;7.83;6.63;;;15.60;99.90;;;;;;5116016;28;20203;-44
2021/07/09 06:51:07;;;;;;;7.30;6.60;;;15.60;99.90;;;;;;5116203;28;20176;-42
2021/07/09 06:53:33;;;;;;;7.53;6.93;;;15.60;99.90;;;;;;5115891;28;20182;-44
2021/07/09 06:55:59;;;;;;;8.53;7.83;;;15.60;99.90;;;;;;5108737;28;20464;-44
2021/07/09 06:58:24;;;;;;;8.10;7.40;;;15.70;99.90;;;;;;5137130;28;20179;-43
2021/07/09 07:00:50;;;;;;;8.13;7.43;;;15.60;99.90;;;;;;5136283;28;20187;-44
2021/07/09 07:03:16;;;;;;;7.80;7.20;;;15.50;99.90;;;;;;5135840;28;20181;-43
2021/07/09 07:05:42;;;;;;;8.53;7.70;;;15.60;99.90;;;;;;5136719;28;20205;-44
2021/07/09 07:08:18;;;;;;;8.00;7.40;;;15.60;99.90;;;;;;5137152;28;20227;-43
2021/07/09 07:10:45;;;;;;;8.17;7.50;;;15.80;99.90;;;;;;5118130;28;20265;-43
2021/07/09 07:13:13;;;;;;;8.50;7.70;;;15.90;99.90;;;;;;5149479;27;20697;-44
2021/07/09 07:15:40;;;;;;;7.60;6.67;;;16.20;99.90;;;;;;5145908;27;20460;-44
2021/07/09 07:18:10;;;;;;;8.67;7.60;;;16.30;99.90;;;;;;5099021;28;20406;-43
2021/07/09 07:20:41;;;;;;;8.10;7.40;;;16.20;99.90;;;;;;5114924;28;20842;-43
2021/07/09 07:23:11;;;;;;;8.80;7.90;;;16.20;99.90;;;;;;5116175;28;20405;-43
2021/07/09 07:25:38;;;;;;;8.67;7.63;;;16.30;99.90;;;;;;5115637;28;20405;-44
2021/07/09 07:28:04;;;;;;;7.83;7.10;;;16.20;99.90;;;;;;5118194;28;20471;-43
2021/07/09 07:30:30;;;;;;;8.33;7.53;;;16.40;99.90;;;;;;5119711;28;20414;-43
2021/07/09 07:32:56;;;;;;;8.90;7.60;;;16.60;99.90;;;;;;5119872;28;20967;-43
2021/07/09 07:35:22;;;;;;;8.13;7.43;;;16.60;99.90;;;;;;5119180;28;20183;-43
2021/07/09 07:37:47;;;;;;;8.30;6.70;;;16.70;99.90;;;;;;5119792;28;20449;-43
2021/07/09 07:40:14;;;;;;;7.30;6.70;;;16.70;99.90;;;;;;5120718;28;20452;-44
2021/07/09 07:42:40;;;;;;;8.93;6.27;;;17.10;99.90;;;;;;5120868;28;20171;-43
2021/07/09 07:45:06;;;;;;;6.77;6.17;;;17.20;99.90;;;;;;5120494;28;20417;-44
2021/07/09 07:47:32;;;;;;;7.00;6.40;;;17.40;99.90;;;;;;5119658;28;20192;-43
2021/07/09 07:49:57;;;;;;;7.10;6.50;;;17.40;99.90;;;;;;5120728;28;20475;-44
2021/07/09 07:52:23;;;;;;;6.20;5.70;;;17.30;99.90;;;;;;5120324;28;20255;-44
2021/07/09 07:54:49;;;;;;;7.30;6.80;;;17.30;99.90;;;;;;5119806;28;20187;-43
2021/07/09 07:57:16;;;;;;;8.50;6.87;;;17.40;99.90;;;;;;5120066;28;20184;-43
2021/07/09 07:59:41;;;;;;;6.90;6.30;;;17.60;99.90;;;;;;5118772;28;20239;-43
2021/07/09 08:02:08;;;;;;;6.60;6.00;;;18.00;99.90;;;;;;5119830;28;20523;-43
2021/07/09 08:04:34;;;;;;;6.43;5.87;;;18.30;99.90;;;;;;5117994;28;20426;-43
2021/07/09 08:07:00;;;;;;;6.63;6.03;;;18.80;99.90;;;;;;5118343;28;20440;-43
2021/07/09 08:09:26;;;;;;;6.13;5.63;;;19.20;99.90;;;;;;5118119;28;20505;-44
2021/07/09 08:11:52;;;;;;;6.53;5.90;;;19.50;99.90;;;;;;5119571;28;20237;-43
2021/07/09 08:14:19;;;;;;;7.17;6.57;;;19.60;99.90;;;;;;5119901;28;20164;-43
2021/07/09 08:16:50;;;;;;;6.17;5.40;;;19.70;99.90;;;;;;5118248;28;20505;-42
2021/07/09 08:19:16;;;;;;;6.53;5.97;;;19.90;99.60;;;;;;5101010;28;20401;-43
2021/07/09 08:21:42;;;;;;;6.47;5.87;;;19.80;98.50;;;;;;5117409;28;20417;-44
2021/07/09 08:24:07;;;;;;;7.00;6.17;;;20.20;99.10;;;;;;5098878;28;20835;-44
2021/07/09 08:26:33;;;;;;;6.13;5.63;;;19.90;98.30;;;;;;5116522;28;20172;-44
2021/07/09 08:28:59;;;;;;;6.17;5.57;;;20.30;99.50;;;;;;5099126;28;20211;-44
2021/07/09 08:31:25;;;;;;;6.07;5.23;;;20.70;97.80;;;;;;5118261;28;20242;-43
2021/07/09 08:33:51;;;;;;;5.57;5.13;;;20.90;97.10;;;;;;5118504;28;20240;-44
2021/07/09 08:36:17;;;;;;;5.73;5.03;;;21.40;97.00;;;;;;5118766;28;20180;-44
2021/07/09 08:38:42;;;;;;;7.50;5.00;;;21.90;95.40;;;;;;5116743;28;20424;-44
2021/07/09 08:41:12;;;;;;;6.63;4.97;;;21.70;94.30;;;;;;5117656;28;20172;-44
2021/07/09 08:43:38;;;;;;;4.77;4.37;;;21.90;95.70;;;;;;5116931;28;20187;-44
2021/07/09 08:46:04;;;;;;;10.77;5.33;;;22.50;94.30;;;;;;5117598;28;20436;-44
2021/07/09 08:48:30;;;;;;;5.30;4.80;;;22.80;93.80;;;;;;5116141;28;20548;-44
2021/07/09 08:51:00;;;;;;;7.00;5.30;;;22.50;94.30;;;;;;5117068;28;20417;-44
2021/07/09 08:53:25;;;;;;;4.50;4.13;;;22.20;94.30;;;;;;5117195;28;20417;-44
2021/07/09 08:55:51;;;;;;;4.67;4.33;;;22.00;93.40;;;;;;5117922;28;20465;-43
2021/07/09 08:58:17;;;;;;;4.83;4.40;;;22.10;93.30;;;;;;5119255;28;20172;-44
2021/07/09 09:00:44;;;;;;;4.90;4.50;;;21.70;93.80;;;;;;5117606;28;20262;-44
2021/07/09 09:03:12;;;;;;;4.43;4.00;;;21.40;93.60;;;;;;5118251;28;20175;-44
2021/07/09 09:05:38;;;;;;;6.33;5.70;;;21.60;94.40;;;;;;5118294;28;20672;-44
2021/07/09 09:08:05;;;;;;;4.77;4.30;;;21.20;94.00;;;;;;5117741;28;20429;-44
2021/07/09 09:10:51;;;;;;;4.80;4.40;;;21.60;93.00;;;;;;5118320;28;20164;-44
2021/07/09 09:13:24;;;;;;;4.40;4.00;;;22.30;92.10;;;;;;5118114;28;20422;-44
2021/07/09 09:16:11;;;;;;;5.80;3.90;;;22.70;91.30;;;;;;5115615;28;20757;-44
2021/07/09 09:18:38;;;;;;;6.87;4.90;;;23.20;90.80;;;;;;5117138;28;20876;-44
2021/07/09 09:21:12;;;;;;;6.03;5.30;;;22.60;91.70;;;;;;5116853;28;20422;-44
2021/07/09 09:23:48;;;;;;;5.80;5.27;;;22.10;91.40;;;;;;5117824;28;20414;-44
2021/07/09 09:26:14;;;;;;;5.87;5.30;;;22.20;91.60;;;;;;5117435;28;20502;-44
2021/07/09 09:28:40;;;;;;;5.63;5.10;;;22.10;90.80;;;;;;5117162;28;20450;-44
2021/07/09 09:31:07;;;;;;;5.47;4.90;;;23.10;91.10;;;;;;5116849;28;20429;-44
2021/07/09 09:33:35;;;;;;;6.17;5.60;;;23.50;90.00;;;;;;5098404;28;20421;-44
2021/07/09 09:36:08;;;;;;;7.00;6.00;;;23.20;89.00;;;;;;5116284;28;20456;-44
2021/07/09 09:38:34;;;;;;;5.43;4.90;;;22.00;90.20;;;;;;5116822;28;20760;-44
2021/07/09 09:41:01;;;;;;;6.97;6.37;;;22.30;91.00;;;;;;5116223;28;20467;-44
2021/07/09 09:43:29;;;;;;;7.07;6.47;;;21.80;90.50;;;;;;5115980;28;20410;-44
2021/07/09 09:46:01;;;;;;;7.20;6.50;;;22.10;90.80;;;;;;5114652;28;20741;-44
2021/07/09 09:48:35;;;;;;;6.73;6.13;;;22.00;90.50;;;;;;5113708;28;20483;-46
2021/07/09 09:51:01;;;;;;;7.47;6.07;;;21.90;90.50;;;;;;5097057;28;20420;-44
2021/07/09 09:53:34;;;;;;;6.60;6.10;;;22.10;90.20;;;;;;5097522;28;20409;-44
2021/07/09 09:56:07;;;;;;;6.80;6.23;;;22.10;89.70;;;;;;5115690;28;20227;-44
2021/07/09 09:58:33;;;;;;;6.13;5.63;;;22.40;90.80;;;;;;5114720;28;20492;-44
2021/07/09 10:00:59;;;;;;;5.97;5.47;;;23.30;89.20;;;;;;5115356;28;20460;-44
2021/07/09 10:03:24;;;;;;;5.57;5.17;;;23.90;85.60;;;;;;5115944;28;20437;-44
2021/07/09 10:05:51;;;;;;;5.77;5.27;;;23.10;85.90;;;;;;5114910;28;20244;-45
2021/07/09 10:08:21;;;;;;;7.17;6.47;;;23.40;86.70;;;;;;5114535;28;20250;-44
2021/07/09 10:10:48;;;;;;;4.90;4.50;;;22.90;85.50;;;;;;5115873;28;20406;-44
2021/07/09 10:13:15;;;;;;;5.50;5.03;;;23.20;87.30;;;;;;5114220;28;20424;-44
2021/07/09 10:15:42;;;;;;;7.37;5.43;;;23.40;84.90;;;;;;5097739;28;20716;-43
2021/07/09 10:18:18;;;;;;;4.80;4.50;;;24.40;85.00;;;;;;5114609;28;20421;-43
2021/07/09 10:20:45;;;;;;;6.07;5.47;;;25.30;82.80;;;;;;5098142;28;20848;-43
2021/07/09 10:23:15;;;;;;;5.00;4.60;;;25.10;81.60;;;;;;5116207;28;20432;-42
2021/07/09 10:25:41;;;;;;;6.10;5.50;;;25.50;80.00;;;;;;5116805;28;20445;-43
2021/07/09 10:28:07;;;;;;;5.70;5.13;;;26.20;78.60;;;;;;5096658;28;20401;-43
2021/07/09 10:30:39;;;;;;;5.20;4.80;;;25.60;79.70;;;;;;5115704;28;20401;-43
2021/07/09 10:33:35;;;;;;;6.80;6.10;;;24.60;80.10;;;;;;5097956;28;20462;-43
2021/07/09 10:36:08;;;;;;;7.33;6.40;;;24.30;79.60;;;;;;5094281;28;20429;-43
2021/07/09 10:38:41;;;;;;;7.90;7.20;;;24.20;85.00;;;;;;5098064;28;20433;-43
2021/07/09 10:41:12;;;;;;;6.83;6.30;;;23.80;89.00;;;;;;5097976;28;20429;-44
2021/07/09 10:43:38;;;;;;;8.00;7.33;;;23.50;91.50;;;;;;5116230;28;20425;-44
2021/07/09 10:46:08;;;;;;;8.47;7.83;;;23.30;92.70;;;;;;5116157;28;20491;-43
2021/07/09 10:48:38;;;;;;;9.00;8.27;;;23.30;92.80;;;;;;5098669;28;20211;-42
2021/07/09 10:51:04;;;;;;;9.53;8.20;;;23.30;92.60;;;;;;5117623;28;20489;-43
2021/07/09 10:53:31;;;;;;;10.70;8.70;;;23.40;94.60;;;;;;5116628;28;20405;-43
2021/07/09 10:56:09;;;;;;;8.13;7.53;;;24.20;95.50;;;;;;5116018;28;20530;-43
2021/07/09 10:58:45;;;;;;;8.50;7.83;;;25.00;94.10;;;;;;5115471;28;20424;-43
2021/07/09 11:01:12;;;;;;;8.20;7.23;;;25.90;90.60;;;;;;5118835;28;20421;-42
2021/07/09 11:03:39;;;;;;;9.50;8.70;;;26.80;91.10;;;;;;5119938;28;20763;-43
2021/07/09 11:06:12;;;;;;;9.77;8.77;;;27.20;83.70;;;;;;5117687;28;20536;-42
2021/07/09 11:08:48;;;;;;;7.97;7.37;;;26.70;85.40;;;;;;5120994;28;20506;-43
2021/07/09 11:11:28;;;;;;;8.07;7.43;;;26.50;86.60;;;;;;5119718;28;20413;-43
2021/07/09 11:13:58;;;;;;;7.93;7.33;;;26.20;87.30;;;;;;5116627;28;20492;-43
2021/07/09 11:16:23;;;;;;;7.37;6.77;;;25.90;86.90;;;;;;5118709;28;20843;-43
2021/07/09 11:18:59;;;;;;;7.80;7.20;;;25.70;80.00;;;;;;5117855;28;20764;-44
2021/07/09 11:21:31;;;;;;;7.93;7.23;;;26.10;86.80;;;;;;5115219;28;20690;-44
2021/07/09 11:23:58;;;;;;;7.53;6.83;;;26.50;82.90;;;;;;5096722;28;20835;-44
2021/07/09 11:26:25;;;;;;;9.30;8.40;;;26.50;81.00;;;;;;5117908;28;20429;-43
2021/07/09 11:28:51;;;;;;;7.00;6.40;;;26.00;78.70;;;;;;5116853;28;20460;-44
2021/07/09 11:31:35;;;;;;;7.80;7.20;;;26.30;79.40;;;;;;5098584;28;20835;-44
2021/07/09 11:34:09;;;;;;;7.87;7.30;;;26.90;76.90;;;;;;5119200;28;20657;-43
2021/07/09 11:36:53;;;;;;;7.27;6.67;;;27.50;72.20;;;;;;5119041;28;20447;-43
2021/07/09 11:39:21;;;;;;;6.93;6.33;;;27.80;69.10;;;;;;5118597;28;20413;-44
2021/07/09 11:42:03;;;;;;;7.23;6.63;;;27.70;67.10;;;;;;5119021;28;20425;-43
2021/07/09 11:44:33;;;;;;;7.67;7.07;;;26.30;69.50;;;;;;5116735;28;20421;-43
2021/07/09 11:47:02;;;;;;;7.70;7.10;;;26.80;71.50;;;;;;5118558;28;20512;-43
2021/07/09 11:49:30;;;;;;;6.17;5.67;;;27.20;68.90;;;;;;5117567;28;20604;-43
2021/07/09 11:52:01;;;;;;;6.20;5.70;;;27.60;65.70;;;;;;5119078;28;20445;-43
2021/07/09 11:54:35;;;;;;;7.17;6.10;;;27.80;64.60;;;;;;5118666;28;20421;-44
2021/07/09 11:57:07;;;;;;;7.73;5.93;;;28.10;64.90;;;;;;5119159;28;20464;-43
2021/07/09 11:59:34;;;;;;;6.07;5.57;;;27.80;63.20;;;;;;5102900;28;20413;-48
2021/07/09 12:02:11;;;;;;;7.37;6.63;;;28.40;59.80;;;;;;5120300;28;20702;-43
2021/07/09 12:04:41;;;;;;;7.40;6.77;;;26.80;61.10;;;;;;5102059;28;20876;-42
2021/07/09 12:07:39;;;;;;;7.57;6.87;;;25.90;63.20;;;;;;5118360;28;20746;-43
2021/07/09 12:10:09;;;;;;;7.07;6.50;;;25.50;66.20;;;;;;5116514;28;20926;-43
2021/07/09 12:12:38;;;;;;;6.70;6.20;;;26.00;69.60;;;;;;5114322;28;20863;-43
2021/07/09 12:15:18;;;;;;;6.53;6.03;;;26.40;65.80;;;;;;5115541;28;20409;-44
2021/07/09 12:17:48;;;;;;;5.57;5.17;;;26.30;65.20;;;;;;5115605;28;20428;-43
2021/07/09 12:20:21;;;;;;;5.57;5.03;;;26.30;64.80;;;;;;5115350;28;20851;-43
2021/07/09 12:23:16;;;;;;;4.47;4.13;;;25.70;63.30;;;;;;5116484;28;20447;-43
2021/07/09 12:25:44;;;;;;;5.17;4.70;;;25.20;64.80;;;;;;5094829;28;20417;-43
2021/07/09 12:28:15;;;;;;;5.50;5.00;;;25.30;67.00;;;;;;5117358;28;20418;-42
2021/07/09 12:30:44;;;;;;;5.50;5.00;;;24.70;67.80;;;;;;5099454;28;20406;-43
2021/07/09 12:33:25;;;;;;;5.87;4.90;;;23.70;68.40;;;;;;5115823;28;20406;-43
2021/07/09 12:35:58;;;;;;;4.83;4.33;;;24.30;72.10;;;;;;5117499;28;20896;-42
2021/07/09 12:38:24;;;;;;;5.10;4.70;;;25.60;70.20;;;;;;5118823;28;20409;-44
2021/07/09 12:40:51;;;;;;;6.27;4.97;;;26.70;67.00;;;;;;5116346;28;20486;-43
2021/07/09 12:43:21;;;;;;;4.47;4.07;;;27.00;61.70;;;;;;5116934;28;20643;-43
2021/07/09 12:46:01;;;;;;;6.87;4.80;;;25.90;63.50;;;;;;5116373;28;20508;-43
2021/07/09 12:48:39;;;;;;;5.20;4.80;;;26.10;64.90;;;;;;5116485;28;20453;-43
2021/07/09 12:51:35;;;;;;;9.30;4.63;;;26.00;64.30;;;;;;5116377;28;20490;-43